Shepardsville, Indiana
Current Conditions -  °F | °C
As of 5:53 AM on Sunday 21 Dec 2014 (Local Time) from KHUF Reporting Station
Haze Haze  
Wind Chill: 17°   Ceiling: Unl
Heat Index: 23°   Visibility: 5mi
Dew Point: 21°   Wind: 5mph
Humidity: 92%   Direction: 130°SE
Pressure: 30.28"   Gusts: NA
Location:  39.6°N, 87.42°W
Report Text: KHUF 211053Z 13004KT 5SM BR CLR M05/M06 A3028 RMK AO2 SLP259 I1000 T10501061
Loading
Personal Weather Stations






























Interactive Weather Map New forecast layout! Learn more

10-Day Weather Forecast

Advertisements
Track Severe Weather on mobile